createdAt,value
2022-10-13T00:00:54.233Z,24.09
2022-10-13T00:11:01.212Z,24.07
2022-10-13T00:21:08.497Z,24.03
2022-10-13T00:31:14.817Z,24.05
2022-10-13T00:41:21.106Z,24.09
2022-10-13T00:51:27.990Z,24.09
2022-10-13T01:01:33.969Z,24.06
2022-10-13T01:11:39.949Z,24.01
2022-10-13T01:21:46.267Z,24.04
2022-10-13T01:31:53.226Z,24.07
2022-10-13T01:41:59.240Z,24.11
2022-10-13T01:52:06.211Z,24.05
2022-10-13T02:02:12.393Z,24.07
2022-10-13T02:12:19.142Z,24.06
2022-10-13T02:22:26.547Z,24.02
2022-10-13T02:32:33.264Z,24.05
2022-10-13T02:42:39.642Z,24.09
2022-10-13T02:52:46.593Z,24.06
2022-10-13T03:02:53.377Z,24.00
2022-10-13T03:13:00.109Z,23.98
2022-10-13T03:23:07.231Z,24.00
2022-10-13T03:33:14.619Z,23.98
2022-10-13T03:43:21.543Z,24.04
2022-10-13T03:53:28.402Z,24.05
2022-10-13T04:03:35.000Z,24.00
2022-10-13T04:13:43.200Z,24.00
2022-10-13T04:23:50.038Z,23.99
2022-10-13T04:33:56.433Z,23.95
2022-10-13T04:44:03.308Z,23.99
2022-10-13T04:54:09.864Z,24.01
2022-10-13T05:04:16.093Z,23.99
2022-10-13T05:14:23.084Z,23.97
2022-10-13T05:24:29.489Z,23.96
2022-10-13T05:34:35.729Z,23.95
2022-10-13T05:44:42.808Z,23.94
2022-10-13T05:54:49.034Z,23.93
2022-10-13T06:04:55.802Z,23.93
2022-10-13T06:15:02.615Z,23.87
2022-10-13T06:25:08.823Z,23.88
2022-10-13T06:35:15.604Z,23.91
2022-10-13T06:45:22.590Z,23.96
2022-10-13T06:55:29.743Z,24.05
2022-10-13T07:05:36.616Z,24.13
2022-10-13T07:15:42.913Z,24.14
2022-10-13T07:25:50.091Z,24.14
2022-10-13T07:35:56.964Z,24.08
2022-10-13T07:46:03.692Z,24.06
2022-10-13T07:56:10.790Z,24.14
2022-10-13T08:06:18.032Z,24.13
2022-10-13T08:16:25.113Z,24.18
2022-10-13T08:26:32.052Z,24.15
2022-10-13T08:36:38.785Z,24.15
2022-10-13T08:46:45.734Z,24.13
2022-10-13T08:56:53.059Z,24.15
2022-10-13T09:06:59.440Z,24.12
2022-10-13T09:17:06.696Z,24.14
2022-10-13T09:27:13.158Z,24.01
2022-10-13T09:37:19.871Z,24.02
2022-10-13T09:47:26.829Z,24.04
2022-10-13T09:57:33.689Z,23.96
2022-10-13T10:07:40.237Z,23.90
2022-10-13T10:17:47.277Z,23.88
2022-10-13T10:27:54.102Z,23.87
2022-10-13T10:38:00.338Z,23.85
2022-10-13T10:48:07.303Z,23.88
2022-10-13T10:58:13.565Z,23.87
2022-10-13T11:08:20.642Z,23.84
2022-10-13T11:18:27.647Z,23.81
2022-10-13T11:28:34.378Z,23.79
2022-10-13T11:38:41.015Z,23.83
2022-10-13T11:48:48.040Z,23.81
2022-10-13T11:58:54.997Z,23.80
2022-10-13T12:09:01.896Z,23.81
2022-10-13T12:19:08.340Z,23.81
2022-10-13T12:29:14.725Z,23.78
2022-10-13T12:39:21.432Z,23.77
2022-10-13T12:49:28.134Z,23.75
2022-10-13T12:59:35.134Z,23.78
2022-10-13T13:09:42.088Z,23.79
2022-10-13T13:19:49.114Z,23.77
2022-10-13T13:29:55.567Z,23.77
2022-10-13T13:40:01.748Z,23.69
2022-10-13T13:50:08.702Z,23.74
2022-10-13T14:00:15.110Z,23.76
2022-10-13T14:10:21.838Z,23.72
2022-10-13T14:20:28.987Z,23.72
2022-10-13T14:30:36.242Z,23.72
2022-10-13T14:40:43.106Z,23.74
2022-10-13T14:50:49.500Z,23.71
2022-10-13T15:00:55.757Z,23.70
2022-10-13T15:11:02.314Z,23.70
2022-10-13T15:21:08.900Z,23.70
2022-10-13T15:31:15.957Z,23.69
2022-10-13T15:41:22.881Z,23.67
2022-10-13T15:51:29.674Z,23.70
2022-10-13T16:01:36.361Z,23.72
2022-10-13T16:11:43.379Z,23.70
2022-10-13T16:21:49.975Z,23.71
2022-10-13T16:31:56.805Z,23.69
2022-10-13T16:42:03.915Z,23.67
2022-10-13T16:52:11.264Z,23.66
2022-10-13T17:02:18.961Z,23.65
2022-10-13T17:12:26.240Z,23.62
2022-10-13T17:22:33.197Z,23.62
2022-10-13T17:32:39.684Z,23.75
2022-10-13T17:42:45.854Z,23.84
2022-10-13T17:52:51.887Z,23.93
2022-10-13T18:02:57.892Z,23.96
2022-10-13T18:13:03.704Z,24.01
2022-10-13T18:23:09.986Z,24.04
2022-10-13T18:33:16.325Z,24.03
2022-10-13T18:43:22.569Z,24.12
2022-10-13T18:53:28.627Z,24.16
2022-10-13T19:03:34.899Z,24.15
2022-10-13T19:13:41.644Z,24.30
2022-10-13T19:23:48.781Z,24.25
2022-10-13T19:33:54.891Z,24.28
2022-10-13T19:44:01.347Z,24.33
2022-10-13T19:54:07.187Z,24.26
2022-10-13T20:04:13.881Z,24.25
2022-10-13T20:14:20.300Z,24.33
2022-10-13T20:24:27.353Z,24.41
2022-10-13T20:34:35.425Z,24.39
2022-10-13T20:44:42.473Z,24.37
2022-10-13T20:54:49.381Z,24.46
2022-10-13T21:04:56.464Z,24.45
2022-10-13T21:15:02.320Z,24.43
2022-10-13T21:25:08.740Z,24.37
2022-10-13T21:35:15.671Z,24.40
2022-10-13T21:45:22.785Z,24.41
2022-10-13T21:56:49.154Z,24.42
2022-10-13T22:06:55.004Z,24.20
2022-10-13T22:17:02.074Z,24.17
2022-10-13T22:27:08.900Z,24.12
2022-10-13T22:37:15.506Z,24.07
2022-10-13T22:47:22.928Z,24.02
2022-10-13T22:57:29.979Z,24.00
2022-10-13T23:07:37.064Z,23.92
2022-10-13T23:17:43.490Z,23.98
2022-10-13T23:27:50.586Z,23.93
2022-10-13T23:37:58.095Z,23.87
2022-10-13T23:48:04.955Z,23.85
2022-10-13T23:58:11.957Z,23.84
